Time;durP1;ratioP1;P1;durP2;ratioP2;P2;SDS_P1;SDS_P2;PMS_P1;PMS_P2;Temp;Humidity;BMP_temperature;BMP_pressure;BME280_temperature;BME280_humidity;BME280_pressure;Samples;Min_cycle;Max_cycle;Signal;HPM_P1;HPM_P2
2022/07/03 00:01:16;;;;;;;12.43;11.20;;;;;;;22.61;86.99;95309.44;5109377;28;20424;-84
2022/07/03 00:03:43;;;;;;;12.53;11.23;;;;;;;22.61;87.67;95306.75;5109550;28;20455;-84
2022/07/03 00:06:10;;;;;;;13.07;11.77;;;;;;;22.66;87.52;95301.63;5109814;28;20815;-85
2022/07/03 00:08:37;;;;;;;13.03;11.73;;;;;;;22.61;86.96;95293.38;5106048;28;20509;-84
2022/07/03 00:11:04;;;;;;;13.63;12.23;;;;;;;22.66;86.73;95301.63;5095722;28;20447;-82
2022/07/03 00:13:31;;;;;;;15.13;12.67;;;;;;;22.73;86.77;95307.03;5095935;28;20466;-80
2022/07/03 00:15:58;;;;;;;13.47;11.97;;;;;;;22.79;86.35;95306.25;5096100;28;20447;-85
2022/07/03 00:18:26;;;;;;;13.43;12.23;;;;;;;22.67;85.99;95305.16;5095632;28;20487;-86
2022/07/03 00:21:00;;;;;;;12.87;11.57;;;;;;;22.52;86.15;95308.72;5060169;28;20447;-85
2022/07/03 00:23:30;;;;;;;12.60;11.43;;;;;;;22.53;86.87;95305.03;5095990;28;20440;-85
2022/07/03 00:26:02;;;;;;;12.77;11.67;;;;;;;22.50;87.03;95302.75;5095387;28;20441;-85
2022/07/03 00:28:29;;;;;;;13.40;11.10;;;;;;;22.54;87.16;95300.50;5095493;28;20470;-84
2022/07/03 00:30:58;;;;;;;11.87;10.67;;;;;;;22.61;86.87;95301.41;5095604;28;20440;-84
2022/07/03 00:33:29;;;;;;;14.17;11.33;;;;;;;22.66;86.52;95300.81;5095215;28;20448;-85
2022/07/03 00:35:57;;;;;;;11.30;10.30;;;;;;;22.69;86.51;95295.06;5095687;28;20861;-84
2022/07/03 00:38:24;;;;;;;12.30;11.20;;;;;;;22.68;85.75;95296.91;5095243;28;20848;-85
2022/07/03 00:40:51;;;;;;;11.70;10.70;;;;;;;22.71;85.51;95293.84;5060077;28;20786;-85
2022/07/03 00:43:18;;;;;;;13.07;11.77;;;;;;;22.68;85.18;95288.91;5095256;28;20444;-84
2022/07/03 00:45:47;;;;;;;11.70;10.60;;;;;;;22.70;85.49;95281.50;5096180;28;20489;-83
2022/07/03 00:48:15;;;;;;;12.50;9.90;;;;;;;22.63;85.19;95277.13;5094879;28;20451;-85
2022/07/03 00:50:47;;;;;;;11.43;10.43;;;;;;;22.55;85.46;95268.25;5095268;28;20447;-84
2022/07/03 00:53:18;;;;;;;14.40;10.80;;;;;;;22.52;85.38;95276.63;5095445;28;20586;-83
2022/07/03 00:55:48;;;;;;;12.77;11.67;;;;;;;22.53;85.76;95274.78;5095483;28;20452;-85
2022/07/03 00:58:17;;;;;;;11.17;10.17;;;;;;;22.50;85.28;95270.63;5094790;28;20487;-84
2022/07/03 01:00:46;;;;;;;12.17;10.57;;;;;;;22.44;84.44;95267.91;5094645;28;20449;-85
2022/07/03 01:03:16;;;;;;;11.27;10.10;;;;;;;22.36;84.81;95268.91;5094599;28;20446;-83
2022/07/03 01:05:50;;;;;;;12.33;11.00;;;;;;;22.38;84.79;95276.72;5094724;28;20444;-85
2022/07/03 01:08:30;;;;;;;11.20;10.20;;;;;;;22.43;84.55;95275.13;5094735;28;20570;-84
2022/07/03 01:11:08;;;;;;;11.47;10.37;;;;;;;22.45;83.67;95280.28;5094428;28;20440;-85
2022/07/03 01:13:44;;;;;;;11.03;10.03;;;;;;;22.43;83.81;95274.28;5094648;28;20444;-85
2022/07/03 01:16:20;;;;;;;14.43;9.43;;;;;;;22.40;83.77;95269.34;5094533;28;20448;-85
2022/07/03 01:19:15;;;;;;;14.93;10.63;;;;;;;22.42;85.25;95261.94;5094188;28;20481;-82
2022/07/03 01:21:56;;;;;;;10.45;9.25;;;;;;;22.42;84.68;95254.75;5093180;28;20372;-85
2022/07/03 01:24:43;;;;;;;11.43;10.43;;;;;;;22.44;84.41;95254.56;5094586;28;20675;-84
2022/07/03 01:27:17;;;;;;;11.07;10.10;;;;;;;22.52;84.54;95262.41;5094410;28;20440;-82
2022/07/03 01:29:54;;;;;;;9.60;8.70;;;;;;;22.54;84.30;95263.06;5094128;28;21004;-81
2022/07/03 01:32:26;;;;;;;10.90;9.63;;;;;;;22.62;83.25;95267.44;5094226;28;20930;-86
2022/07/03 01:34:54;;;;;;;13.63;9.70;;;;;;;22.67;83.70;95265.84;5094508;28;20444;-83
2022/07/03 01:37:23;;;;;;;25.60;10.03;;;;;;;22.62;83.47;95257.56;5094054;28;20440;-85
2022/07/03 01:39:54;;;;;;;15.63;11.20;;;;;;;22.61;83.91;95265.81;5058369;28;20441;-84
2022/07/03 01:42:24;;;;;;;11.03;10.13;;;;;;;22.59;84.46;95252.63;5093843;28;20448;-85
2022/07/03 01:44:53;;;;;;;13.03;10.73;;;;;;;22.54;84.71;95255.84;5058635;28;20444;-85
2022/07/03 01:47:22;;;;;;;11.17;10.03;;;;;;;22.60;84.68;95259.63;5093759;28;20523;-85
2022/07/03 01:49:50;;;;;;;10.57;9.67;;;;;;;22.62;84.05;95262.94;5093871;28;20448;-84
2022/07/03 01:52:20;;;;;;;11.83;10.73;;;;;;;22.60;84.00;95264.97;5093914;28;20433;-84
2022/07/03 01:54:48;;;;;;;17.57;10.00;;;;;;;22.59;83.99;95267.84;5093632;28;20806;-80
2022/07/03 01:57:16;;;;;;;12.03;10.87;;;;;;;22.62;84.33;95272.81;5093660;28;20448;-84
2022/07/03 01:59:44;;;;;;;15.07;10.80;;;;;;;22.64;84.09;95265.41;5093780;28;20492;-85
2022/07/03 02:02:20;;;;;;;14.80;10.20;;;;;;;22.62;83.54;95265.59;5093513;28;20444;-85
2022/07/03 02:04:58;;;;;;;12.10;9.20;;;;;;;22.57;83.70;95249.31;5093399;28;20448;-85
2022/07/03 02:07:36;;;;;;;10.20;9.40;;;;;;;22.52;83.67;95259.75;5093258;28;20787;-84
2022/07/03 02:10:06;;;;;;;11.50;10.03;;;;;;;22.48;83.25;95253.97;5093603;28;20804;-85
2022/07/03 02:12:40;;;;;;;10.87;9.70;;;;;;;22.50;83.52;95265.28;5093526;28;20441;-85
2022/07/03 02:15:10;;;;;;;11.37;10.33;;;;;;;22.39;83.30;95256.97;5093482;28;20552;-85
2022/07/03 02:17:39;;;;;;;10.23;9.43;;;;;;;22.38;84.00;95266.03;5093088;28;20471;-85
2022/07/03 02:20:09;;;;;;;11.27;10.27;;;;;;;22.41;83.71;95261.13;5093298;28;20444;-85
2022/07/03 02:22:38;;;;;;;12.00;10.07;;;;;;;22.41;83.68;95254.94;5025477;28;20451;-85
2022/07/03 02:25:08;;;;;;;12.97;9.63;;;;;;;22.38;83.56;95260.69;5093322;28;20984;-85
2022/07/03 02:27:43;;;;;;;12.17;10.37;;;;;;;22.37;83.59;95253.69;5058257;28;20441;-84
2022/07/03 02:30:14;;;;;;;15.33;9.23;;;;;;;22.39;83.82;95251.63;5093384;28;20440;-86
2022/07/03 02:32:45;;;;;;;11.07;10.03;;;;;;;22.38;83.86;95256.16;5093091;28;20851;-85
2022/07/03 02:35:18;;;;;;;15.90;10.60;;;;;;;22.38;83.84;95258.00;5093027;28;20441;-84
2022/07/03 02:37:48;;;;;;;15.30;10.20;;;;;;;22.38;83.90;95255.34;5092810;28;21005;-84
2022/07/03 02:40:34;;;;;;;12.37;9.53;;;;;;;22.30;83.16;95263.50;5093091;28;20445;-82
2022/07/03 02:43:15;;;;;;;13.60;10.03;;;;;;;22.32;84.15;95269.47;5093013;28;20448;-85
2022/07/03 02:45:55;;;;;;;20.93;9.50;;;;;;;22.31;83.92;95271.34;5093232;28;20444;-85
2022/07/03 02:48:30;;;;;;;17.30;10.83;;;;;;;22.32;83.75;95277.50;5093355;28;20502;-85
2022/07/03 02:51:11;;;;;;;12.13;10.57;;;;;;;22.25;83.57;95277.41;5092997;28;20526;-85
2022/07/03 02:53:44;;;;;;;11.30;9.63;;;;;;;22.22;83.62;95278.63;5093110;28;20444;-84
2022/07/03 02:56:16;;;;;;;13.97;9.20;;;;;;;22.19;83.98;95284.38;5092996;28;20467;-84
2022/07/03 02:58:58;;;;;;;10.57;9.67;;;;;;;22.15;83.71;95272.41;5092870;28;20496;-85
2022/07/03 03:01:34;;;;;;;14.53;8.33;;;;;;;22.13;83.82;95282.47;5092587;28;20454;-84
2022/07/03 03:04:10;;;;;;;14.10;9.80;;;;;;;22.12;84.11;95275.47;5092631;28;20444;-84
2022/07/03 03:06:38;;;;;;;12.63;10.17;;;;;;;22.16;84.26;95290.09;5092668;28;20451;-84
2022/07/03 03:09:08;;;;;;;10.27;9.37;;;;;;;22.19;84.08;95286.22;5093234;28;20472;-84
2022/07/03 03:11:43;;;;;;;16.77;9.13;;;;;;;22.24;84.39;95289.97;5093037;28;20429;-85
2022/07/03 03:14:13;;;;;;;11.80;10.13;;;;;;;22.29;84.11;95288.59;5092514;28;20433;-84
2022/07/03 03:16:48;;;;;;;11.20;10.10;;;;;;;22.28;83.83;95281.59;5092684;28;20443;-84
2022/07/03 03:19:15;;;;;;;13.83;10.50;;;;;;;22.30;83.61;95280.38;5093084;28;20484;-85
2022/07/03 03:21:53;;;;;;;11.53;9.33;;;;;;;22.28;83.69;95278.91;5092618;28;20922;-83
2022/07/03 03:24:22;;;;;;;11.60;10.40;;;;;;;22.35;83.57;95288.63;5092514;28;20903;-85
2022/07/03 03:26:49;;;;;;;12.83;10.13;;;;;;;22.38;83.93;95288.25;5092506;28;20440;-84
2022/07/03 03:29:16;;;;;;;12.43;10.03;;;;;;;22.41;83.24;95287.03;5057009;28;20440;-84
2022/07/03 03:31:44;;;;;;;13.73;9.93;;;;;;;22.39;82.89;95294.44;5092781;28;20441;-84
2022/07/03 03:34:12;;;;;;;16.40;10.10;;;;;;;22.42;83.71;95300.22;5092533;28;20813;-85
2022/07/03 03:36:39;;;;;;;11.70;10.60;;;;;;;22.51;84.04;95298.22;5092303;28;20444;-84
2022/07/03 03:39:06;;;;;;;10.77;9.83;;;;;;;22.64;83.54;95298.34;5092361;28;20488;-84
2022/07/03 03:41:34;;;;;;;16.33;9.70;;;;;;;22.81;82.61;95305.06;5092741;28;20508;-85
2022/07/03 03:44:00;;;;;;;11.20;10.10;;;;;;;23.02;81.87;95303.34;5093224;28;20440;-84
2022/07/03 03:46:27;;;;;;;11.50;9.90;;;;;;;23.23;80.63;95302.44;5096816;28;20895;-84
2022/07/03 03:48:56;;;;;;;11.23;9.17;;;;;;;23.40;79.99;95299.22;5096429;28;20817;-85
2022/07/03 03:51:23;;;;;;;17.07;12.07;;;;;;;23.54;78.72;95299.28;5095946;28;20437;-85
2022/07/03 03:53:50;;;;;;;9.23;8.30;;;;;;;23.64;77.43;95302.44;5096476;28;20444;-83
2022/07/03 03:56:17;;;;;;;13.77;10.07;;;;;;;23.79;77.15;95303.97;5095947;28;20455;-85
2022/07/03 03:58:45;;;;;;;9.30;8.40;;;;;;;23.96;76.80;95309.75;5096058;28;20485;-84
2022/07/03 04:01:12;;;;;;;9.80;8.90;;;;;;;24.16;75.48;95311.66;5095974;28;20521;-85
2022/07/03 04:03:40;;;;;;;11.13;9.37;;;;;;;24.34;74.38;95320.81;5095755;28;20435;-85
2022/07/03 04:06:08;;;;;;;11.43;8.80;;;;;;;24.54;73.68;95312.78;5096010;28;20652;-84
2022/07/03 04:08:35;;;;;;;12.60;8.80;;;;;;;24.73;73.09;95310.31;5095870;28;20482;-86
2022/07/03 04:11:02;;;;;;;9.40;8.70;;;;;;;24.93;72.56;95314.63;5095831;28;21027;-85
2022/07/03 04:13:29;;;;;;;14.13;8.73;;;;;;;25.08;70.62;95302.84;5095546;28;20455;-85
2022/07/03 04:15:56;;;;;;;10.10;9.20;;;;;;;25.30;70.18;95313.13;5093889;28;20467;-84
2022/07/03 04:18:24;;;;;;;9.57;8.77;;;;;;;25.50;69.90;95310.41;5059991;28;20443;-85
2022/07/03 04:20:50;;;;;;;9.40;8.53;;;;;;;25.66;68.76;95313.63;5095423;28;20447;-85
2022/07/03 04:23:19;;;;;;;13.03;9.00;;;;;;;25.85;68.61;95320.84;5095676;28;20453;-85
2022/07/03 04:25:46;;;;;;;15.33;9.20;;;;;;;26.05;67.12;95321.56;5095953;28;20454;-83
2022/07/03 04:28:13;;;;;;;9.57;8.77;;;;;;;26.28;67.14;95310.22;5095544;28;20439;-85
2022/07/03 04:30:40;;;;;;;9.47;8.57;;;;;;;26.51;65.57;95307.81;5095465;28;20454;-86
2022/07/03 04:33:07;;;;;;;9.13;8.23;;;;;;;26.73;64.82;95299.38;5095540;28;20455;-83
2022/07/03 04:35:34;;;;;;;9.97;8.77;;;;;;;26.92;63.89;95317.25;5059999;28;20956;-88
2022/07/03 04:38:01;;;;;;;10.63;8.57;;;;;;;27.07;63.58;95303.44;5095729;28;20445;-81
2022/07/03 04:40:29;;;;;;;15.37;9.20;;;;;;;27.21;63.76;95293.38;5095147;28;20510;-85
2022/07/03 04:42:56;;;;;;;9.13;8.30;;;;;;;27.33;62.24;95308.56;5095300;28;20448;-85
2022/07/03 04:45:23;;;;;;;10.40;9.40;;;;;;;27.51;62.47;95306.94;5095192;28;20452;-85
2022/07/03 04:47:50;;;;;;;13.83;9.67;;;;;;;27.63;61.81;95303.28;5095323;28;20485;-86
2022/07/03 04:50:17;;;;;;;9.50;8.50;;;;;;;27.81;61.33;95298.94;5095174;28;20438;-85
2022/07/03 04:52:43;;;;;;;14.30;8.70;;;;;;;28.01;60.77;95303.00;5094921;28;20442;-83
2022/07/03 04:55:11;;;;;;;9.50;8.43;;;;;;;28.14;60.24;95311.97;5094977;28;20944;-87
2022/07/03 04:57:39;;;;;;;12.07;9.17;;;;;;;28.34;60.48;95310.69;5094908;28;21025;-85
2022/07/03 05:00:08;;;;;;;17.43;11.20;;;;;;;28.51;59.52;95302.72;5095006;28;20849;-85
2022/07/03 05:02:35;;;;;;;8.83;7.97;;;;;;;28.76;59.13;95301.72;5094762;28;20452;-85
2022/07/03 05:05:03;;;;;;;12.90;9.07;;;;;;;29.01;57.64;95306.94;5094946;28;20444;-86
2022/07/03 05:07:30;;;;;;;8.47;7.67;;;;;;;29.12;56.54;95303.41;5094703;28;20476;-85
2022/07/03 05:09:57;;;;;;;9.33;8.53;;;;;;;29.17;56.10;95298.94;5094982;28;20945;-86
2022/07/03 05:12:23;;;;;;;9.60;8.60;;;;;;;29.25;54.22;95301.31;5094826;28;20432;-86
2022/07/03 05:14:52;;;;;;;9.93;9.00;;;;;;;29.15;54.34;95295.66;5094589;28;20938;-85
2022/07/03 05:17:19;;;;;;;9.67;8.77;;;;;;;29.09;55.37;95290.38;5094499;28;20437;-85
2022/07/03 05:19:46;;;;;;;9.50;8.63;;;;;;;29.26;55.11;95292.13;5094378;28;20486;-85
2022/07/03 05:22:13;;;;;;;10.63;9.40;;;;;;;29.46;55.05;95283.66;5075826;28;20436;-84
2022/07/03 05:24:40;;;;;;;9.40;8.50;;;;;;;29.46;54.25;95296.34;5094346;28;20810;-86
2022/07/03 05:27:06;;;;;;;12.00;9.53;;;;;;;29.14;55.03;95290.47;5094678;28;20444;-86
2022/07/03 05:29:33;;;;;;;9.80;9.00;;;;;;;29.32;55.65;95294.94;5094205;28;20435;-85
2022/07/03 05:32:01;;;;;;;12.60;8.67;;;;;;;29.44;55.34;95288.47;5094571;28;20440;-85
2022/07/03 05:34:28;;;;;;;9.43;8.63;;;;;;;29.37;53.47;95290.47;5094449;28;20444;-86
2022/07/03 05:36:56;;;;;;;11.10;9.10;;;;;;;29.38;54.85;95291.28;5094288;28;20991;-85
2022/07/03 05:39:37;;;;;;;8.50;7.90;;;;;;;29.38;54.86;95294.81;5059214;28;20491;-85
2022/07/03 05:42:06;;;;;;;10.70;9.13;;;;;;;29.54;56.08;95299.53;5094014;28;20453;-85
2022/07/03 05:44:32;;;;;;;9.73;8.83;;;;;;;29.72;54.36;95295.00;5094142;28;20535;-85
2022/07/03 05:47:01;;;;;;;11.87;9.30;;;;;;;29.77;54.26;95300.50;5094124;28;20436;-86
2022/07/03 05:49:28;;;;;;;9.10;8.20;;;;;;;29.87;53.17;95308.88;5094035;28;20452;-86
2022/07/03 05:51:55;;;;;;;15.77;9.87;;;;;;;29.84;51.63;95306.63;5094171;28;20444;-86
2022/07/03 05:54:21;;;;;;;10.47;9.30;;;;;;;29.95;53.40;95303.06;5093842;28;20945;-84
2022/07/03 05:56:48;;;;;;;9.73;9.00;;;;;;;30.18;53.58;95308.41;5093899;28;20443;-86
2022/07/03 05:59:15;;;;;;;10.40;8.87;;;;;;;30.30;51.79;95313.78;5093779;28;20492;-83
2022/07/03 06:01:42;;;;;;;11.00;9.93;;;;;;;29.97;53.67;95306.34;5094024;28;20441;-85
2022/07/03 06:04:10;;;;;;;13.20;10.60;;;;;;;30.07;53.81;95309.31;5058271;28;20429;-86
2022/07/03 06:06:37;;;;;;;10.97;10.07;;;;;;;30.32;54.45;95308.13;5093222;28;20444;-86
2022/07/03 06:09:04;;;;;;;11.10;10.00;;;;;;;30.41;51.29;95318.34;5093802;28;20472;-85
2022/07/03 06:11:31;;;;;;;14.23;10.27;;;;;;;30.08;52.95;95310.94;5058632;28;20442;-83
2022/07/03 06:13:58;;;;;;;10.30;9.40;;;;;;;30.21;52.95;95310.66;5093591;28;21013;-86
2022/07/03 06:16:25;;;;;;;12.30;10.70;;;;;;;29.89;51.90;95309.44;5058228;28;20461;-85
2022/07/03 06:18:54;;;;;;;12.43;10.80;;;;;;;30.14;53.22;95314.56;5094137;28;20463;-82
2022/07/03 06:21:22;;;;;;;10.53;9.53;;;;;;;30.06;52.48;95313.03;5093604;28;20932;-87
2022/07/03 06:23:49;;;;;;;12.93;10.50;;;;;;;30.05;52.73;95316.81;5093923;28;20463;-82
2022/07/03 06:26:16;;;;;;;10.97;10.07;;;;;;;30.03;52.46;95313.53;5093593;28;20962;-83
2022/07/03 06:28:43;;;;;;;9.87;8.97;;;;;;;29.89;53.74;95309.44;5093418;28;20444;-85
2022/07/03 06:31:10;;;;;;;11.77;10.63;;;;;;;29.71;52.40;95307.72;5093536;28;20445;-86
2022/07/03 06:33:37;;;;;;;10.63;9.83;;;;;;;29.68;53.06;95310.06;5093490;28;20445;-86
2022/07/03 06:36:04;;;;;;;12.33;11.07;;;;;;;29.66;53.57;95314.91;5093339;28;20948;-84
2022/07/03 06:38:32;;;;;;;16.43;14.97;;;;;;;29.10;55.54;95314.47;5093257;28;20443;-85
2022/07/03 06:40:59;;;;;;;13.93;12.63;;;;;;;29.30;55.60;95308.69;5093067;28;20482;-82
2022/07/03 06:43:26;;;;;;;13.10;12.00;;;;;;;29.55;54.64;95298.47;5093346;28;20448;-83
2022/07/03 06:45:53;;;;;;;13.07;11.63;;;;;;;29.91;54.26;95320.84;5093281;28;20444;-86
2022/07/03 06:48:20;;;;;;;10.97;9.97;;;;;;;30.17;53.38;95304.06;5074008;28;20521;-85
2022/07/03 06:50:47;;;;;;;14.83;10.80;;;;;;;30.48;52.67;95307.34;5093043;28;20450;-86
2022/07/03 06:53:14;;;;;;;19.93;10.50;;;;;;;30.66;53.42;95303.63;5093120;28;20432;-86
2022/07/03 06:55:42;;;;;;;15.53;14.13;;;;;;;30.67;51.24;95302.56;5093026;28;20454;-86
2022/07/03 06:58:10;;;;;;;15.37;13.73;;;;;;;30.31;53.21;95303.75;5093221;28;20444;-85
2022/07/03 07:00:38;;;;;;;16.00;14.50;;;;;;;30.46;51.93;95301.34;5092956;28;20586;-86
2022/07/03 07:03:05;;;;;;;11.57;10.70;;;;;;;30.55;51.25;95299.88;5093000;28;20451;-86
2022/07/03 07:05:32;;;;;;;13.70;11.53;;;;;;;30.71;53.12;95299.09;5093306;28;20440;-86
2022/07/03 07:07:59;;;;;;;11.53;10.43;;;;;;;31.08;51.88;95302.13;5092715;28;21012;-85
2022/07/03 07:10:26;;;;;;;12.20;10.13;;;;;;;31.42;51.23;95294.78;5093220;28;20454;-87
2022/07/03 07:12:54;;;;;;;10.67;9.67;;;;;;;31.31;51.04;95293.00;5093142;28;20782;-87
2022/07/03 07:15:21;;;;;;;14.93;10.83;;;;;;;31.07;51.80;95296.97;5092970;28;20440;-82
2022/07/03 07:17:48;;;;;;;10.83;9.93;;;;;;;30.95;53.17;95293.53;5092907;28;20458;-85
2022/07/03 07:20:15;;;;;;;13.80;8.50;;;;;;;30.77;51.30;95294.59;5095946;28;20508;-85
2022/07/03 07:22:42;;;;;;;10.90;9.80;;;;;;;29.90;52.14;95287.56;5096935;28;20443;-86
2022/07/03 07:25:09;;;;;;;13.90;9.27;;;;;;;29.41;53.03;95291.63;5097222;28;20451;-81
2022/07/03 07:27:36;;;;;;;11.03;10.00;;;;;;;29.44;54.76;95285.78;5097043;28;20447;-86
2022/07/03 07:30:05;;;;;;;10.67;9.77;;;;;;;29.64;54.81;95287.28;5097091;28;20856;-85
2022/07/03 07:32:32;;;;;;;9.33;8.63;;;;;;;30.00;54.17;95281.50;5096690;28;20440;-84
2022/07/03 07:34:59;;;;;;;11.17;10.17;;;;;;;29.71;53.09;95282.53;5096728;28;20453;-85
2022/07/03 07:37:27;;;;;;;11.10;10.20;;;;;;;29.76;53.67;95280.75;5096612;28;20979;-85
2022/07/03 07:39:53;;;;;;;10.40;9.10;;;;;;;30.05;54.07;95280.81;5096383;28;20567;-85
2022/07/03 07:42:20;;;;;;;12.30;9.83;;;;;;;30.24;53.74;95273.31;5096933;28;20438;-85
2022/07/03 07:44:47;;;;;;;10.20;9.40;;;;;;;30.44;53.62;95277.22;5096351;28;20454;-85
2022/07/03 07:47:16;;;;;;;11.53;10.13;;;;;;;30.73;53.03;95274.47;5096307;28;20446;-81
2022/07/03 07:49:43;;;;;;;10.20;9.30;;;;;;;30.92;52.04;95277.72;5096646;28;20450;-84
2022/07/03 07:52:10;;;;;;;10.40;9.70;;;;;;;30.92;51.76;95275.84;5096062;28;20449;-84
2022/07/03 07:54:37;;;;;;;11.33;10.33;;;;;;;30.85;52.30;95277.91;5061085;28;20487;-83
2022/07/03 07:57:04;;;;;;;10.23;9.50;;;;;;;31.08;53.31;95283.16;5096327;28;20446;-84
2022/07/03 07:59:31;;;;;;;10.87;9.93;;;;;;;31.27;52.83;95278.31;5096013;28;20448;-84
2022/07/03 08:07:28;;;;;;;11.57;10.67;;;;;;;31.02;51.09;95272.50;5095851;28;20563;-84
2022/07/03 08:09:55;;;;;;;10.97;10.03;;;;;;;31.10;51.32;95263.94;5095683;28;20459;-84
2022/07/03 08:12:22;;;;;;;10.20;9.40;;;;;;;30.49;52.21;95262.94;5095823;28;20969;-84
2022/07/03 08:14:49;;;;;;;11.47;10.00;;;;;;;30.61;52.47;95255.56;5095899;28;20528;-80
2022/07/03 08:17:16;;;;;;;10.40;9.03;;;;;;;30.70;52.35;95259.53;5096037;28;20843;-86
2022/07/03 08:19:44;;;;;;;10.93;9.10;;;;;;;30.52;50.98;95257.03;5095635;28;20440;-80
2022/07/03 08:22:11;;;;;;;12.27;9.87;;;;;;;30.52;51.65;95257.84;5095776;28;20429;-86
2022/07/03 08:24:38;;;;;;;12.10;10.00;;;;;;;30.63;51.83;95258.84;5095690;28;20446;-84
2022/07/03 08:27:06;;;;;;;9.03;8.30;;;;;;;30.86;53.30;95259.75;5095811;28;20999;-83
2022/07/03 08:29:33;;;;;;;9.73;9.03;;;;;;;30.88;51.98;95257.63;5095376;28;20450;-85
2022/07/03 08:31:59;;;;;;;9.93;9.13;;;;;;;30.93;52.50;95265.81;5096061;28;20448;-85
2022/07/03 08:34:26;;;;;;;8.90;8.10;;;;;;;31.18;53.16;95254.56;5095872;28;20459;-83
2022/07/03 08:36:55;;;;;;;12.60;9.03;;;;;;;31.14;49.97;95251.50;5076769;28;20447;-85
2022/07/03 08:39:22;;;;;;;9.67;8.80;;;;;;;30.89;50.80;95256.53;5095368;28;20794;-85
2022/07/03 08:41:50;;;;;;;10.60;9.80;;;;;;;31.02;52.29;95250.81;5076499;28;20475;-83
2022/07/03 08:44:19;;;;;;;9.73;8.80;;;;;;;30.94;50.99;95254.75;5095317;28;20439;-81
2022/07/03 08:46:50;;;;;;;9.63;8.70;;;;;;;30.92;50.02;95250.63;5095443;28;20458;-84
2022/07/03 08:49:18;;;;;;;9.77;9.00;;;;;;;30.85;49.64;95250.00;5095170;28;20432;-85
2022/07/03 08:51:46;;;;;;;11.07;9.97;;;;;;;30.92;52.32;95254.16;5095142;28;20942;-84
2022/07/03 08:54:14;;;;;;;10.43;9.53;;;;;;;31.05;51.96;95245.69;5095238;28;20454;-84
2022/07/03 08:56:42;;;;;;;9.90;9.00;;;;;;;31.29;51.51;95240.09;5094919;28;20441;-82
2022/07/03 08:59:09;;;;;;;13.23;9.37;;;;;;;31.33;51.75;95246.66;5094759;28;20458;-84
2022/07/03 09:01:41;;;;;;;10.30;9.43;;;;;;;31.42;50.28;95237.00;5096250;28;20480;-85
2022/07/03 09:04:11;;;;;;;9.53;8.60;;;;;;;31.36;49.38;95240.72;5096823;28;20452;-85
2022/07/03 09:06:40;;;;;;;8.87;8.17;;;;;;;31.39;49.83;95245.66;5097770;28;20523;-83
2022/07/03 09:09:08;;;;;;;10.10;9.30;;;;;;;31.23;50.20;95241.94;5060553;28;20470;-84
2022/07/03 09:11:37;;;;;;;9.60;8.80;;;;;;;31.30;49.89;95249.88;5096966;28;20451;-84
2022/07/03 09:14:06;;;;;;;9.93;9.07;;;;;;;31.23;50.17;95244.63;5095935;28;20444;-83
2022/07/03 09:16:34;;;;;;;11.63;8.40;;;;;;;31.04;50.39;95243.25;5095967;28;20524;-83
2022/07/03 09:19:02;;;;;;;8.70;8.00;;;;;;;31.06;50.44;95239.22;5095658;28;20457;-83
2022/07/03 09:21:36;;;;;;;8.33;7.73;;;;;;;31.19;47.86;95227.19;5095697;28;20487;-82
2022/07/03 09:24:05;;;;;;;9.33;8.53;;;;;;;31.13;48.71;95241.72;5096247;28;20497;-83
2022/07/03 09:26:32;;;;;;;8.90;8.07;;;;;;;31.32;50.98;95245.00;5097533;28;20443;-80
2022/07/03 09:29:01;;;;;;;8.80;7.93;;;;;;;31.08;49.25;95238.94;5061906;28;20814;-79
2022/07/03 09:31:29;;;;;;;8.67;7.97;;;;;;;30.72;49.93;95234.91;5077736;28;20428;-83
2022/07/03 09:33:58;;;;;;;8.37;7.77;;;;;;;30.73;49.26;95237.34;5095061;28;20926;-82
2022/07/03 09:36:43;;;;;;;9.63;7.97;;;;;;;30.71;47.70;95234.06;5094849;28;20448;-81
2022/07/03 09:39:18;;;;;;;8.90;8.00;;;;;;;30.63;48.21;95226.34;5095030;28;20444;-83
2022/07/03 09:42:01;;;;;;;7.83;6.80;;;;;;;30.43;47.22;95223.28;5094487;28;20563;-83
2022/07/03 09:44:38;;;;;;;9.60;8.20;;;;;;;30.81;46.77;95217.97;5095099;28;20451;-86
2022/07/03 09:47:23;;;;;;;7.67;7.00;;;;;;;31.06;48.08;95217.50;5094072;28;20551;-81
2022/07/03 09:49:53;;;;;;;9.77;7.30;;;;;;;31.14;46.63;95218.97;5058024;28;20439;-85
2022/07/03 09:52:29;;;;;;;8.00;7.23;;;;;;;31.06;47.66;95213.97;5094116;28;20494;-84
2022/07/03 09:54:56;;;;;;;7.80;7.10;;;;;;;31.07;45.78;95204.78;5093940;28;20504;-85
2022/07/03 09:57:23;;;;;;;9.43;7.43;;;;;;;31.00;45.83;95209.56;5095790;28;20439;-86
2022/07/03 10:00:10;;;;;;;10.17;7.50;;;;;;;30.92;43.86;95208.09;5096363;28;20961;-84
2022/07/03 10:02:51;;;;;;;6.10;5.50;;;;;;;30.79;39.96;95208.44;5096493;28;20456;-85
2022/07/03 10:05:18;;;;;;;6.13;5.73;;;;;;;30.42;40.65;95208.09;5095892;28;20447;-85
2022/07/03 10:07:52;;;;;;;8.03;5.70;;;;;;;30.53;41.22;95212.63;5096579;28;20479;-85
2022/07/03 10:10:21;;;;;;;5.60;5.20;;;;;;;30.51;38.86;95199.31;5078326;28;20528;-85
2022/07/03 10:12:50;;;;;;;6.20;5.70;;;;;;;30.42;38.96;95210.81;5096907;28;20854;-83
2022/07/03 10:15:19;;;;;;;6.93;6.33;;;;;;;30.50;41.93;95199.56;5095357;28;20451;-83
2022/07/03 10:17:49;;;;;;;5.87;5.37;;;;;;;30.68;40.10;95195.81;5095767;28;20444;-83
2022/07/03 10:20:20;;;;;;;5.60;5.20;;;;;;;30.86;41.68;95189.28;5096371;28;20836;-85
2022/07/03 10:22:49;;;;;;;5.57;5.20;;;;;;;31.02;39.92;95196.59;5096115;28;20458;-84
2022/07/03 10:25:17;;;;;;;6.53;5.90;;;;;;;31.18;39.64;95194.91;5096169;28;20451;-84
2022/07/03 10:27:45;;;;;;;6.90;6.00;;;;;;;30.89;38.43;95183.38;5059370;28;20436;-82
2022/07/03 10:30:14;;;;;;;7.63;6.30;;;;;;;30.96;37.13;95181.31;5095933;28;20448;-85
2022/07/03 10:32:44;;;;;;;6.77;6.17;;;;;;;31.04;40.01;95178.19;5094784;28;20448;-81
2022/07/03 10:35:12;;;;;;;7.27;6.70;;;;;;;31.31;39.52;95179.09;5093341;28;20451;-84
2022/07/03 10:37:50;;;;;;;6.43;5.93;;;;;;;31.36;38.96;95171.03;5093715;28;20440;-84
2022/07/03 10:46:16;;;;;;;7.03;6.43;;;;;;;31.42;40.18;95172.72;5093022;28;20883;-84
2022/07/03 10:49:02;;;;;;;7.20;5.90;;;;;;;31.16;38.18;95178.91;5058014;28;20448;-84
2022/07/03 10:51:31;;;;;;;6.70;6.20;;;;;;;31.03;39.51;95166.50;5093017;28;20455;-84
2022/07/03 10:54:14;;;;;;;9.33;6.10;;;;;;;31.02;41.41;95169.47;5092764;28;20439;-85
2022/07/03 10:57:10;;;;;;;6.70;5.90;;;;;;;30.89;41.36;95169.81;5092957;28;20499;-84
2022/07/03 11:00:08;;;;;;;7.67;7.07;;;;;;;30.96;41.95;95160.47;5092831;28;20818;-85
2022/07/03 11:02:37;;;;;;;7.17;6.60;;;;;;;30.98;42.54;95160.19;5050395;28;20516;-84
2022/07/03 11:05:22;;;;;;;7.13;5.97;;;;;;;31.02;42.26;95156.75;5000997;28;20442;-81
2022/07/03 11:08:09;;;;;;;7.30;5.73;;;;;;;30.95;39.22;95160.72;5034273;28;20488;-85
2022/07/03 11:10:41;;;;;;;6.20;5.60;;;;;;;30.65;40.08;95148.38;5050445;28;20446;-85
2022/07/03 11:13:17;;;;;;;5.60;5.10;;;;;;;30.16;39.78;95158.94;5050276;28;21030;-84
2022/07/03 11:15:45;;;;;;;5.83;5.33;;;;;;;30.47;41.12;95151.31;5050140;28;20449;-81
2022/07/03 11:18:21;;;;;;;6.33;5.73;;;;;;;30.31;41.43;95141.28;5050566;28;20450;-85
2022/07/03 11:21:31;;;;;;;9.90;6.50;;;;;;;30.29;44.25;95140.72;5050330;28;20484;-84
2022/07/03 11:24:19;;;;;;;6.10;5.60;;;;;;;30.53;44.92;95131.34;5050706;28;20456;-85
2022/07/03 11:26:46;;;;;;;6.07;5.67;;;;;;;30.67;42.44;95138.09;4990951;28;20451;-83
2022/07/03 11:29:29;;;;;;;7.70;6.30;;;;;;;30.86;43.25;95133.19;4991070;28;20447;-84
2022/07/03 11:31:56;;;;;;;14.00;6.47;;;;;;;30.93;42.51;95122.97;4991077;28;20456;-84
2022/07/03 11:34:23;;;;;;;7.33;6.40;;;;;;;31.15;42.50;95120.28;4992506;28;20485;-85
2022/07/03 11:36:51;;;;;;;7.03;6.23;;;;;;;31.25;43.05;95112.31;4992087;28;20437;-85
2022/07/03 11:39:22;;;;;;;6.67;6.10;;;;;;;31.28;42.39;95106.38;5044559;28;20796;-83
2022/07/03 11:41:49;;;;;;;7.50;6.80;;;;;;;31.43;41.62;95116.56;5049805;28;20987;-84
2022/07/03 11:44:18;;;;;;;7.47;6.80;;;;;;;31.51;41.21;95115.28;5050019;28;20454;-84
2022/07/03 11:46:49;;;;;;;6.53;5.93;;;;;;;31.53;41.06;95113.16;5049805;28;20445;-84
2022/07/03 11:49:18;;;;;;;8.93;6.60;;;;;;;31.60;41.44;95108.34;5049917;28;20502;-82